createdAt,value
2022-10-11T00:00:57.051Z,13.28
2022-10-11T00:03:27.600Z,13.20
2022-10-11T00:05:55.178Z,13.28
2022-10-11T00:08:23.097Z,13.33
2022-10-11T00:11:02.516Z,13.24
2022-10-11T00:13:31.562Z,13.24
2022-10-11T00:15:59.292Z,13.13
2022-10-11T00:18:26.836Z,13.12
2022-10-11T00:21:15.096Z,13.12
2022-10-11T00:23:43.431Z,13.13
2022-10-11T00:26:11.590Z,13.03
2022-10-11T00:28:40.630Z,13.19
2022-10-11T00:31:11.449Z,13.26
2022-10-11T00:33:40.666Z,13.24
2022-10-11T00:36:09.739Z,13.17
2022-10-11T00:38:37.600Z,13.06
2022-10-11T00:41:04.918Z,12.98
2022-10-11T00:43:34.603Z,13.06
2022-10-11T00:46:26.476Z,12.97
2022-10-11T00:49:03.566Z,12.90
2022-10-11T00:51:40.889Z,13.00
2022-10-11T00:54:13.673Z,12.89
2022-10-11T00:56:45.113Z,12.78
2022-10-11T00:59:19.416Z,12.76
2022-10-11T01:01:47.665Z,12.82
2022-10-11T01:04:15.295Z,12.85
2022-10-11T01:06:43.087Z,12.75
2022-10-11T01:09:11.093Z,12.66
2022-10-11T01:11:41.293Z,12.64
2022-10-11T01:14:32.001Z,12.71
2022-10-11T01:17:17.146Z,12.78
2022-10-11T01:20:22.155Z,12.62
2022-10-11T01:23:25.646Z,12.55
2022-10-11T01:26:25.843Z,12.43
2022-10-11T01:29:14.850Z,12.58
2022-10-11T01:31:56.712Z,12.54
2022-10-11T01:34:57.088Z,12.50
2022-10-11T01:37:26.087Z,12.62
2022-10-11T01:40:21.385Z,12.64
2022-10-11T01:42:49.887Z,12.63
2022-10-11T01:45:20.363Z,12.60
2022-10-11T01:48:01.832Z,12.47
2022-10-11T01:50:53.206Z,12.42
2022-10-11T01:53:29.695Z,12.38
2022-10-11T01:56:11.960Z,12.34
2022-10-11T01:59:03.590Z,12.29
2022-10-11T02:01:53.146Z,12.29
2022-10-11T02:04:36.704Z,12.14
2022-10-11T02:07:20.411Z,12.15
2022-10-11T02:10:11.873Z,12.12
2022-10-11T02:12:44.730Z,12.01
2022-10-11T02:15:14.686Z,11.87
2022-10-11T02:17:50.088Z,12.02
2022-10-11T02:20:25.901Z,11.88
2022-10-11T02:23:02.603Z,11.89
2022-10-11T02:25:34.983Z,11.81
2022-10-11T02:28:11.279Z,11.95
2022-10-11T02:30:42.655Z,11.93
2022-10-11T02:33:14.569Z,12.06
2022-10-11T02:35:47.891Z,11.92
2022-10-11T02:38:21.833Z,11.96
2022-10-11T02:40:58.839Z,11.92
2022-10-11T02:43:36.179Z,11.89
2022-10-11T02:46:07.058Z,11.86
2022-10-11T02:48:36.276Z,11.71
2022-10-11T02:51:04.213Z,11.54
2022-10-11T02:53:35.155Z,11.43
2022-10-11T02:56:04.461Z,11.58
2022-10-11T02:58:32.172Z,11.59
2022-10-11T03:01:00.749Z,11.87
2022-10-11T03:03:28.207Z,11.82
2022-10-11T03:06:03.332Z,11.92
2022-10-11T03:08:32.436Z,11.90
2022-10-11T03:10:59.822Z,11.77
2022-10-11T03:13:27.142Z,11.69
2022-10-11T03:16:02.669Z,11.62
2022-10-11T03:18:31.637Z,11.63
2022-10-11T03:20:59.668Z,11.65
2022-10-11T03:23:27.900Z,11.54
2022-10-11T03:25:55.921Z,11.69
2022-10-11T03:28:23.402Z,11.52
2022-10-11T03:30:51.693Z,11.71
2022-10-11T03:33:19.662Z,11.72
2022-10-11T03:35:49.001Z,11.57
2022-10-11T03:38:22.196Z,11.64
2022-10-11T03:40:52.230Z,11.71
2022-10-11T03:43:19.627Z,11.69
2022-10-11T03:45:47.121Z,11.62
2022-10-11T03:48:14.374Z,11.28
2022-10-11T03:50:42.633Z,11.22
2022-10-11T03:53:10.104Z,11.31
2022-10-11T03:55:41.444Z,11.22
2022-10-11T03:58:09.461Z,11.15
2022-10-11T04:00:37.946Z,11.28
2022-10-11T04:03:06.018Z,11.39
2022-10-11T04:05:33.439Z,11.27
2022-10-11T04:08:00.797Z,11.04
2022-10-11T04:10:28.163Z,10.88
2022-10-11T04:12:55.608Z,10.88
2022-10-11T04:15:24.786Z,11.19
2022-10-11T04:17:53.354Z,11.22
2022-10-11T04:20:20.797Z,11.13
2022-10-11T04:22:49.344Z,11.07
2022-10-11T04:25:16.802Z,10.93
2022-10-11T04:27:44.723Z,11.02
2022-10-11T04:30:14.508Z,11.03
2022-10-11T04:32:43.827Z,11.10
2022-10-11T04:35:11.803Z,11.10
2022-10-11T04:37:40.453Z,10.91
2022-10-11T04:40:09.142Z,10.86
2022-10-11T04:42:37.775Z,10.71
2022-10-11T04:45:06.084Z,10.73
2022-10-11T04:47:33.515Z,10.67
2022-10-11T04:50:00.809Z,10.94
2022-10-11T04:52:32.005Z,10.94
2022-10-11T04:55:01.302Z,10.96
2022-10-11T04:57:29.735Z,10.85
2022-10-11T04:59:58.651Z,10.81
2022-10-11T05:02:26.617Z,10.78
2022-10-11T05:04:54.071Z,10.64
2022-10-11T05:07:25.026Z,10.55
2022-10-11T05:09:54.728Z,10.84
2022-10-11T05:12:22.132Z,11.00
2022-10-11T05:14:51.220Z,10.75
2022-10-11T05:17:18.652Z,10.71
2022-10-11T05:19:47.051Z,10.60
2022-10-11T05:22:16.112Z,10.57
2022-10-11T05:24:44.286Z,10.51
2022-10-11T05:27:11.523Z,10.65
2022-10-11T05:29:39.677Z,10.75
2022-10-11T05:32:07.428Z,10.70
2022-10-11T05:34:36.035Z,10.52
2022-10-11T05:37:03.521Z,10.52
2022-10-11T05:39:32.435Z,10.64
2022-10-11T05:41:59.823Z,10.65
2022-10-11T05:44:28.184Z,10.62
2022-10-11T05:46:57.037Z,10.40
2022-10-11T05:49:26.491Z,10.35
2022-10-11T05:51:54.265Z,10.29
2022-10-11T05:54:22.559Z,10.58
2022-10-11T05:56:49.930Z,10.43
2022-10-11T05:59:17.208Z,10.54
2022-10-11T06:01:45.465Z,10.31
2022-10-11T06:04:15.102Z,10.37
2022-10-11T06:06:44.172Z,10.29
2022-10-11T06:09:13.055Z,10.29
2022-10-11T06:11:41.645Z,10.53
2022-10-11T06:14:12.222Z,10.61
2022-10-11T06:16:45.134Z,10.50
2022-10-11T06:19:13.431Z,10.42
2022-10-11T06:21:40.659Z,10.45
2022-10-11T06:24:09.466Z,10.35
2022-10-11T06:26:37.179Z,10.41
2022-10-11T06:29:06.054Z,10.36
2022-10-11T06:31:33.610Z,10.39
2022-10-11T06:34:02.224Z,10.36
2022-10-11T06:36:30.004Z,10.27
2022-10-11T06:39:01.582Z,10.21
2022-10-11T06:41:31.192Z,10.15
2022-10-11T06:43:59.569Z,10.26
2022-10-11T06:46:28.192Z,10.34
2022-10-11T06:48:56.940Z,10.48
2022-10-11T06:51:24.651Z,10.67
2022-10-11T06:53:58.486Z,10.77
2022-10-11T06:56:30.265Z,10.74
2022-10-11T06:59:00.600Z,10.72
2022-10-11T07:01:28.335Z,10.90
2022-10-11T07:04:01.827Z,10.83
2022-10-11T07:06:37.866Z,10.89
2022-10-11T07:09:06.893Z,10.84
2022-10-11T07:11:34.782Z,10.92
2022-10-11T07:14:07.904Z,10.95
2022-10-11T07:16:38.489Z,11.02
2022-10-11T07:19:07.869Z,11.12
2022-10-11T07:21:35.744Z,11.28
2022-10-11T07:24:03.335Z,11.44
2022-10-11T07:26:37.464Z,11.51
2022-10-11T07:29:12.067Z,11.50
2022-10-11T07:31:44.098Z,11.45
2022-10-11T07:34:13.407Z,11.50
2022-10-11T07:36:40.784Z,11.75
2022-10-11T07:39:08.935Z,12.08
2022-10-11T07:41:39.662Z,13.03
2022-10-11T07:44:10.372Z,13.99
2022-10-11T07:46:39.199Z,15.03
2022-10-11T07:49:07.545Z,16.10
2022-10-11T07:51:35.684Z,17.00
2022-10-11T07:54:07.241Z,17.65
2022-10-11T07:56:40.038Z,18.27
2022-10-11T07:59:08.710Z,18.73
2022-10-11T08:01:36.207Z,19.13
2022-10-11T08:04:04.198Z,19.38
2022-10-11T08:06:33.114Z,19.42
2022-10-11T08:09:01.658Z,19.46
2022-10-11T08:11:33.744Z,19.76
2022-10-11T08:14:02.548Z,20.15
2022-10-11T08:16:30.001Z,20.35
2022-10-11T08:18:58.488Z,20.52
2022-10-11T08:21:27.008Z,20.51
2022-10-11T08:23:56.928Z,20.63
2022-10-11T08:26:24.735Z,20.65
2022-10-11T08:28:52.305Z,20.87
2022-10-11T08:31:19.825Z,20.56
2022-10-11T08:33:48.852Z,20.45
2022-10-11T08:36:16.319Z,20.65
2022-10-11T08:38:44.664Z,20.75
2022-10-11T08:41:46.239Z,20.95
2022-10-11T08:44:51.766Z,20.85
2022-10-11T08:47:34.407Z,20.37
2022-10-11T08:50:03.957Z,19.80
2022-10-11T08:52:46.809Z,19.78
2022-10-11T08:55:32.228Z,19.85
2022-10-11T08:58:02.340Z,19.72
2022-10-11T09:00:32.983Z,19.52
2022-10-11T09:03:08.942Z,19.49
2022-10-11T09:05:52.034Z,19.45
2022-10-11T09:08:29.204Z,19.06
2022-10-11T09:11:14.948Z,18.49
2022-10-11T09:14:03.078Z,18.21
2022-10-11T09:16:50.448Z,17.93
2022-10-11T09:19:27.386Z,18.04
2022-10-11T09:22:47.787Z,18.45
2022-10-11T09:25:36.334Z,18.87
2022-10-11T09:28:28.919Z,18.51
2022-10-11T09:31:00.016Z,18.53
2022-10-11T09:33:38.825Z,18.67
2022-10-11T09:36:19.559Z,18.72
2022-10-11T09:38:54.582Z,18.76
2022-10-11T09:41:33.576Z,18.41
2022-10-11T09:44:01.970Z,18.18
2022-10-11T09:46:41.183Z,17.94
2022-10-11T09:49:14.780Z,17.83
2022-10-11T09:51:47.759Z,17.73
2022-10-11T09:54:15.599Z,17.74
2022-10-11T09:56:45.954Z,17.82
2022-10-11T09:59:30.959Z,17.93
2022-10-11T10:02:16.700Z,18.13
2022-10-11T10:05:04.497Z,17.94
2022-10-11T10:07:38.857Z,17.83
2022-10-11T10:10:29.740Z,18.04
2022-10-11T10:13:02.421Z,17.98
2022-10-11T10:15:38.243Z,18.10
2022-10-11T10:18:10.503Z,18.23
2022-10-11T10:20:39.803Z,18.12
2022-10-11T10:23:13.737Z,18.28
2022-10-11T10:25:47.755Z,18.47
2022-10-11T10:28:23.213Z,18.90
2022-10-11T10:30:55.427Z,19.19
2022-10-11T10:33:27.260Z,19.45
2022-10-11T10:36:01.459Z,19.59
2022-10-11T10:38:51.295Z,19.48
2022-10-11T10:41:21.210Z,19.44
2022-10-11T10:43:59.800Z,19.56
2022-10-11T10:46:30.871Z,19.60
2022-10-11T10:52:34.799Z,19.53
2022-10-11T10:55:42.806Z,19.67
2022-10-11T10:58:29.336Z,19.85
2022-10-11T11:01:04.695Z,19.87
2022-10-11T11:03:41.371Z,20.11
2022-10-11T11:06:47.587Z,20.27
2022-10-11T11:09:41.122Z,20.43
2022-10-11T11:12:23.536Z,20.59
2022-10-11T11:14:54.151Z,20.65
2022-10-11T11:18:02.285Z,20.51
2022-10-11T11:20:45.725Z,20.54
2022-10-11T11:23:44.620Z,20.33
2022-10-11T11:26:25.607Z,20.30
2022-10-11T11:29:17.518Z,20.17
2022-10-11T11:31:58.724Z,20.26
2022-10-11T11:34:44.868Z,20.40
2022-10-11T11:37:26.796Z,20.61
2022-10-11T11:40:20.704Z,20.59
2022-10-11T11:42:52.060Z,20.40
2022-10-11T11:45:27.368Z,20.17
2022-10-11T11:47:59.255Z,20.30
2022-10-11T11:50:28.639Z,20.43
2022-10-11T11:53:05.128Z,20.71
2022-10-11T11:55:45.513Z,20.85
2022-10-11T11:58:20.583Z,20.88
2022-10-11T12:00:54.001Z,20.98
2022-10-11T12:03:31.404Z,20.95
2022-10-11T12:06:16.009Z,20.81
2022-10-11T12:09:01.899Z,20.54
2022-10-11T12:12:01.831Z,20.27
2022-10-11T12:17:18.901Z,19.97
2022-10-11T12:20:08.652Z,20.15
2022-10-11T12:22:39.719Z,20.39
2022-10-11T12:25:10.709Z,20.35
2022-10-11T12:27:49.532Z,20.37
2022-10-11T12:30:47.473Z,20.48
2022-10-11T12:33:32.877Z,20.53
2022-10-11T12:36:24.430Z,20.34
2022-10-11T12:39:21.648Z,20.41
2022-10-11T12:41:53.711Z,20.51
2022-10-11T12:44:27.293Z,20.69
2022-10-11T12:46:55.051Z,20.47
2022-10-11T12:49:26.155Z,20.30
2022-10-11T12:52:07.410Z,20.07
2022-10-11T12:55:07.140Z,20.07
2022-10-11T12:58:09.429Z,20.00
2022-10-11T13:00:51.073Z,19.78
2022-10-11T13:03:32.291Z,19.79
2022-10-11T13:06:02.053Z,19.72
2022-10-11T13:08:35.433Z,19.58
2022-10-11T13:11:08.554Z,19.57
2022-10-11T13:13:48.788Z,19.55
2022-10-11T13:16:24.856Z,19.48
2022-10-11T13:18:58.362Z,19.56
2022-10-11T13:21:36.422Z,19.62
2022-10-11T13:24:13.377Z,19.52
2022-10-11T13:26:44.361Z,19.33
2022-10-11T13:29:28.158Z,19.38
2022-10-11T13:31:56.041Z,19.36
2022-10-11T13:34:25.555Z,19.39
2022-10-11T13:36:58.186Z,19.39
2022-10-11T13:39:34.414Z,19.46
2022-10-11T13:42:08.926Z,19.57
2022-10-11T13:44:38.660Z,19.52
2022-10-11T13:47:06.558Z,19.49
2022-10-11T13:49:37.878Z,19.37
2022-10-11T13:52:20.431Z,19.39
2022-10-11T13:54:58.043Z,19.57
2022-10-11T13:57:37.163Z,19.56
2022-10-11T14:00:20.083Z,19.52
2022-10-11T14:03:11.176Z,19.46
2022-10-11T14:05:43.982Z,19.46
2022-10-11T14:08:44.641Z,19.53
2022-10-11T14:11:15.443Z,19.54
2022-10-11T14:13:50.074Z,19.43
2022-10-11T14:16:23.498Z,19.52
2022-10-11T14:19:06.483Z,19.58
2022-10-11T14:21:47.476Z,19.61
2022-10-11T14:24:17.892Z,19.52
2022-10-11T14:26:51.478Z,19.45
2022-10-11T14:29:26.255Z,19.40
2022-10-11T14:32:01.481Z,19.27
2022-10-11T14:34:30.305Z,19.20
2022-10-11T14:36:57.720Z,19.36
2022-10-11T14:39:30.128Z,19.30
2022-10-11T14:41:58.979Z,19.20
2022-10-11T14:44:26.911Z,19.24
2022-10-11T14:46:55.115Z,19.26
2022-10-11T14:49:30.467Z,19.33
2022-10-11T14:52:00.149Z,19.37
2022-10-11T14:54:29.801Z,19.50
2022-10-11T14:57:01.357Z,19.46
2022-10-11T14:59:36.293Z,19.48
2022-10-11T15:02:06.487Z,19.44
2022-10-11T15:04:34.015Z,19.43
2022-10-11T15:07:04.658Z,19.38
2022-10-11T15:09:32.366Z,19.20
2022-10-11T15:12:00.343Z,19.05
2022-10-11T15:14:28.052Z,19.01
2022-10-11T15:16:56.404Z,19.02
2022-10-11T15:19:26.947Z,19.07
2022-10-11T15:21:54.460Z,19.08
2022-10-11T15:24:21.998Z,19.06
2022-10-11T15:26:50.555Z,19.09
2022-10-11T15:29:18.087Z,19.24
2022-10-11T15:31:46.522Z,19.27
2022-10-11T15:34:14.387Z,19.22
2022-10-11T15:36:43.893Z,19.22
2022-10-11T15:39:26.399Z,19.25
2022-10-11T15:41:54.615Z,19.23
2022-10-11T15:44:22.054Z,19.13
2022-10-11T15:46:50.359Z,19.11
2022-10-11T15:49:18.599Z,19.08
2022-10-11T15:51:48.351Z,19.12
2022-10-11T15:54:16.535Z,19.10
2022-10-11T15:56:43.961Z,18.95
2022-10-11T15:59:11.862Z,18.83
2022-10-11T16:01:39.916Z,18.82
2022-10-11T16:04:08.094Z,18.82
2022-10-11T16:06:35.889Z,18.73
2022-10-11T16:09:03.783Z,18.67
2022-10-11T16:11:31.609Z,18.67
2022-10-11T16:13:58.968Z,18.60
2022-10-11T16:16:26.865Z,18.63
2022-10-11T16:18:58.464Z,18.56
2022-10-11T16:21:25.889Z,18.54
2022-10-11T16:23:53.548Z,18.54
2022-10-11T16:26:21.328Z,18.42
2022-10-11T16:28:48.859Z,18.30
2022-10-11T16:31:21.122Z,18.34
2022-10-11T16:33:50.415Z,18.46
2022-10-11T16:36:33.182Z,18.36
2022-10-11T16:39:02.770Z,18.40
2022-10-11T16:41:30.198Z,18.29
2022-10-11T16:43:58.351Z,18.30
2022-10-11T16:46:26.010Z,18.18
2022-10-11T16:48:56.845Z,18.09
2022-10-11T16:51:24.945Z,18.09
2022-10-11T16:53:53.559Z,17.98
2022-10-11T16:56:22.710Z,17.85
2022-10-11T16:58:53.764Z,17.87
2022-10-11T17:01:22.382Z,17.93
2022-10-11T17:03:50.653Z,17.77
2022-10-11T17:06:19.463Z,17.70
2022-10-11T17:08:47.996Z,17.71
2022-10-11T17:11:17.683Z,17.77
2022-10-11T17:13:46.436Z,17.55
2022-10-11T17:16:15.971Z,17.48
2022-10-11T17:18:46.542Z,17.38
2022-10-11T17:21:16.192Z,17.29
2022-10-11T17:23:44.261Z,17.23
2022-10-11T17:26:19.904Z,17.13
2022-10-11T17:28:49.652Z,17.09
2022-10-11T17:31:17.334Z,17.06
2022-10-11T17:33:45.536Z,17.06
2022-10-11T17:36:27.805Z,16.98
2022-10-11T17:38:58.303Z,16.94
2022-10-11T17:41:30.875Z,16.79
2022-10-11T17:44:00.203Z,16.73
2022-10-11T17:46:32.423Z,16.65
2022-10-11T17:49:01.561Z,16.55
2022-10-11T17:51:29.383Z,16.52
2022-10-11T17:53:57.534Z,16.46
2022-10-11T17:56:30.411Z,16.38
2022-10-11T17:59:00.081Z,16.31
2022-10-11T18:01:29.681Z,16.37
2022-10-11T18:04:03.743Z,16.41
2022-10-11T18:06:33.762Z,16.22
2022-10-11T18:09:02.629Z,16.21
2022-10-11T18:11:31.835Z,16.19
2022-10-11T18:13:59.784Z,16.24
2022-10-11T18:16:30.104Z,16.15
2022-10-11T18:18:58.847Z,16.16
2022-10-11T18:21:33.720Z,16.15
2022-10-11T18:24:04.087Z,16.17
2022-10-11T18:26:32.698Z,16.35
2022-10-11T18:29:01.416Z,16.20
2022-10-11T18:31:31.282Z,16.13
2022-10-11T18:33:59.393Z,16.10
2022-10-11T18:36:28.791Z,16.08
2022-10-11T18:39:01.871Z,16.03
2022-10-11T18:41:32.098Z,15.95
2022-10-11T18:44:07.424Z,16.03
2022-10-11T18:46:36.232Z,15.82
2022-10-11T18:49:04.554Z,15.88
2022-10-11T18:51:35.804Z,15.75
2022-10-11T18:54:04.749Z,15.61
2022-10-11T18:56:34.771Z,15.58
2022-10-11T18:59:03.169Z,15.62
2022-10-11T19:01:36.173Z,15.52
2022-10-11T19:04:07.118Z,15.50
2022-10-11T19:06:41.462Z,15.59
2022-10-11T19:09:10.966Z,15.52
2022-10-11T19:11:42.261Z,15.46
2022-10-11T19:14:14.605Z,15.33
2022-10-11T19:16:45.608Z,15.26
2022-10-11T19:19:13.900Z,15.14
2022-10-11T19:21:41.967Z,15.24
2022-10-11T19:24:10.226Z,15.26
2022-10-11T19:26:40.127Z,15.20
2022-10-11T19:29:12.049Z,15.15
2022-10-11T19:31:46.614Z,15.06
2022-10-11T19:34:16.705Z,14.92
2022-10-11T19:36:44.119Z,15.07
2022-10-11T19:39:17.587Z,14.93
2022-10-11T19:41:46.348Z,14.89
2022-10-11T19:44:14.620Z,14.84
2022-10-11T19:46:51.910Z,14.77
2022-10-11T19:49:25.065Z,14.77
2022-10-11T19:51:55.645Z,14.71
2022-10-11T19:54:23.735Z,14.58
2022-10-11T19:56:51.811Z,14.52
2022-10-11T19:59:19.785Z,14.41
2022-10-11T20:01:52.428Z,14.44
2022-10-11T20:04:47.442Z,14.30
2022-10-11T20:07:10.955Z,14.44
2022-10-11T20:09:38.452Z,14.45
2022-10-11T20:12:06.695Z,14.51
2022-10-11T20:14:35.289Z,14.50
2022-10-11T20:17:03.419Z,14.48
2022-10-11T20:19:31.260Z,14.47
2022-10-11T20:22:00.303Z,14.25
2022-10-11T20:24:33.613Z,14.20
2022-10-11T20:27:06.922Z,14.06
2022-10-11T20:29:34.385Z,14.15
2022-10-11T20:32:01.801Z,14.05
2022-10-11T20:34:30.434Z,14.02
2022-10-11T20:36:57.984Z,13.89
2022-10-11T20:39:26.228Z,13.90
2022-10-11T20:41:55.156Z,14.04
2022-10-11T20:44:23.203Z,13.99
2022-10-11T20:46:50.710Z,14.04
2022-10-11T20:49:22.567Z,13.93
2022-10-11T20:51:51.459Z,13.82
2022-10-11T20:54:19.422Z,13.78
2022-10-11T20:56:46.810Z,13.71
2022-10-11T20:59:16.501Z,13.63
2022-10-11T21:01:43.998Z,13.57
2022-10-11T21:04:18.922Z,13.57
2022-10-11T21:06:48.773Z,13.49
2022-10-11T21:09:17.318Z,13.43
2022-10-11T21:11:45.143Z,13.54
2022-10-11T21:14:12.538Z,13.44
2022-10-11T21:16:43.363Z,13.30
2022-10-11T21:19:14.666Z,13.19
2022-10-11T21:21:42.757Z,13.11
2022-10-11T21:24:10.481Z,13.05
2022-10-11T21:26:38.413Z,13.01
2022-10-11T21:29:07.632Z,13.05
2022-10-11T21:31:35.778Z,13.04
2022-10-11T21:34:05.192Z,12.90
2022-10-11T21:36:32.690Z,12.77
2022-10-11T21:39:00.090Z,12.74
2022-10-11T21:41:32.725Z,12.68
2022-10-11T21:44:01.027Z,12.55
2022-10-11T21:47:01.047Z,12.47
2022-10-11T21:49:18.967Z,12.35
2022-10-11T21:51:46.369Z,12.31
2022-10-11T21:54:14.726Z,12.37
2022-10-11T21:56:42.663Z,12.26
2022-10-11T21:59:12.534Z,12.20
2022-10-11T22:01:41.727Z,12.21
2022-10-11T22:04:13.603Z,12.16
2022-10-11T22:06:43.279Z,12.22
2022-10-11T22:09:10.679Z,12.21
2022-10-11T22:11:38.959Z,12.16
2022-10-11T22:14:06.549Z,12.19
2022-10-11T22:16:36.359Z,12.30
2022-10-11T22:19:06.961Z,12.33
2022-10-11T22:21:34.403Z,12.36
2022-10-11T22:24:01.693Z,12.41
2022-10-11T22:26:31.467Z,12.63
2022-10-11T22:29:01.176Z,12.75
2022-10-11T22:31:30.174Z,12.58
2022-10-11T22:33:59.894Z,12.52
2022-10-11T22:36:30.635Z,12.52
2022-10-11T22:38:58.675Z,12.51
2022-10-11T22:41:26.138Z,12.43
2022-10-11T22:43:53.540Z,12.41
2022-10-11T22:46:22.415Z,12.40
2022-10-11T22:48:49.823Z,12.45
2022-10-11T22:51:17.420Z,12.48
2022-10-11T22:53:44.975Z,12.52
2022-10-11T22:56:12.870Z,12.48
2022-10-11T22:58:41.194Z,12.50
2022-10-11T23:01:12.774Z,12.42
2022-10-11T23:03:40.261Z,12.35
2022-10-11T23:06:08.522Z,12.32
2022-10-11T23:08:35.939Z,12.30
2022-10-11T23:11:06.523Z,12.24
2022-10-11T23:13:35.802Z,12.21
2022-10-11T23:16:10.598Z,12.18
2022-10-11T23:18:39.198Z,12.16
2022-10-11T23:21:07.588Z,12.19
2022-10-11T23:23:36.049Z,12.29
2022-10-11T23:26:15.463Z,12.26
2022-10-11T23:28:44.794Z,12.30
2022-10-11T23:31:17.554Z,12.27
2022-10-11T23:33:48.747Z,12.24
2022-10-11T23:36:20.577Z,12.23
2022-10-11T23:38:57.331Z,12.27
2022-10-11T23:41:27.360Z,12.27
2022-10-11T23:43:54.936Z,12.25
2022-10-11T23:46:25.744Z,12.30
2022-10-11T23:48:53.920Z,12.42
2022-10-11T23:51:21.763Z,12.63
2022-10-11T23:53:49.582Z,12.81
2022-10-11T23:56:17.420Z,12.82
2022-10-11T23:58:44.625Z,12.68
